Time;durP1;ratioP1;P1;durP2;ratioP2;P2;SDS_P1;SDS_P2;PMS_P1;PMS_P2;Temp;Humidity;BMP_temperature;BMP_pressure;BME280_temperature;BME280_humidity;BME280_pressure;Samples;Min_cycle;Max_cycle;Signal;HPM_P1;HPM_P2
2021/07/05 00:00:10;;;;;;;14.23;13.13;;;21.30;1.00;;;;;;5049281;28;21013;-56
2021/07/05 00:02:36;;;;;;;14.27;13.17;;;21.20;1.00;;;;;;5046645;28;20204;-55
2021/07/05 00:05:03;;;;;;;15.20;14.10;;;21.20;1.00;;;;;;5038727;28;20798;-54
2021/07/05 00:07:29;;;;;;;15.07;13.77;;;21.20;1.00;;;;;;5046374;28;20550;-54
2021/07/05 00:09:54;;;;;;;14.87;13.77;;;21.10;1.00;;;;;;5029352;28;20421;-55
2021/07/05 00:12:20;;;;;;;15.17;13.83;;;21.10;1.00;;;;;;5028906;28;20244;-52
2021/07/05 00:14:45;;;;;;;15.67;14.37;;;21.10;1.00;;;;;;5032668;28;20284;-54
2021/07/05 00:17:11;;;;;;;18.43;17.03;;;21.20;1.00;;;;;;5043353;28;20225;-54
2021/07/05 00:19:37;;;;;;;15.90;14.70;;;21.20;1.00;;;;;;5038696;28;20247;-55
2021/07/05 00:22:02;;;;;;;16.20;15.00;;;21.10;1.00;;;;;;5036147;28;20190;-54
2021/07/05 00:24:28;;;;;;;15.70;14.50;;;21.00;1.00;;;;;;5048329;28;20204;-51
2021/07/05 00:26:53;;;;;;;15.67;14.47;;;20.80;1.00;;;;;;5042862;28;20184;-55
2021/07/05 00:29:19;;;;;;;15.83;14.63;;;20.70;1.00;;;;;;5030015;28;20181;-55
2021/07/05 00:31:44;;;;;;;16.00;14.50;;;20.70;1.00;;;;;;5030399;28;20202;-53
2021/07/05 00:34:10;;;;;;;15.93;14.73;;;20.70;1.00;;;;;;5041239;28;20232;-55
2021/07/05 00:36:36;;;;;;;15.67;14.40;;;20.70;1.00;;;;;;5042969;28;20197;-53
2021/07/05 00:39:03;;;;;;;15.20;14.00;;;20.70;1.00;;;;;;5048921;28;20189;-51
2021/07/05 00:41:29;;;;;;;14.43;13.33;;;20.60;1.00;;;;;;5048843;28;20203;-52
2021/07/05 00:43:57;;;;;;;16.13;14.90;;;20.70;1.00;;;;;;5047909;28;20481;-55
2021/07/05 00:46:23;;;;;;;15.43;14.23;;;20.60;1.00;;;;;;5048969;28;20483;-54
2021/07/05 00:48:48;;;;;;;15.47;14.07;;;20.60;1.00;;;;;;5046876;28;20651;-50
2021/07/05 00:51:16;;;;;;;16.57;15.27;;;20.60;1.00;;;;;;5048274;28;20470;-53
2021/07/05 00:53:42;;;;;;;15.57;14.30;;;20.60;1.00;;;;;;5035433;28;20207;-56
2021/07/05 00:56:08;;;;;;;15.20;13.98;;;20.50;1.00;;;;;;5048765;28;20775;-56
2021/07/05 00:58:34;;;;;;;15.33;14.03;;;20.50;1.00;;;;;;5047018;28;20190;-54
2021/07/05 01:01:00;;;;;;;15.20;14.07;;;20.50;1.00;;;;;;5030738;28;20282;-55
2021/07/05 01:03:25;;;;;;;15.70;14.50;;;20.50;1.00;;;;;;5043875;28;20430;-51
2021/07/05 01:05:51;;;;;;;16.13;14.83;;;20.50;1.00;;;;;;5035671;28;20220;-55
2021/07/05 01:08:16;;;;;;;16.10;14.60;;;20.40;1.00;;;;;;5052342;28;20192;-53
2021/07/05 01:10:42;;;;;;;15.90;14.53;;;20.40;1.00;;;;;;5045650;28;20859;-54
2021/07/05 01:13:07;;;;;;;15.83;14.50;;;20.30;1.00;;;;;;5032615;28;20747;-54
2021/07/05 01:15:34;;;;;;;15.43;14.13;;;20.30;1.00;;;;;;5047954;28;20201;-56
2021/07/05 01:18:03;;;;;;;15.77;14.47;;;20.30;1.00;;;;;;5052706;28;20600;-55
2021/07/05 01:20:31;;;;;;;16.03;14.73;;;20.30;1.00;;;;;;5041788;28;20447;-51
2021/07/05 01:22:57;;;;;;;15.97;14.67;;;20.10;1.00;;;;;;5044254;28;20420;-54
2021/07/05 01:25:26;;;;;;;16.25;14.85;;;20.10;1.00;;;;;;5052087;28;20485;-52
2021/07/05 01:27:54;;;;;;;15.27;14.07;;;20.00;1.00;;;;;;5043841;28;20267;-52
2021/07/05 01:30:21;;;;;;;15.60;14.40;;;20.00;1.00;;;;;;5032786;28;20398;-55
2021/07/05 01:32:49;;;;;;;16.47;15.13;;;20.00;1.00;;;;;;5035500;28;20533;-52
2021/07/05 01:35:15;;;;;;;16.50;15.07;;;20.00;1.60;;;;;;5051493;28;20484;-53
2021/07/05 01:37:41;;;;;;;16.53;15.03;;;20.00;1.00;;;;;;5052467;28;20397;-54
2021/07/05 01:40:13;;;;;;;15.73;14.53;;;20.00;2.30;;;;;;5046440;28;20516;-54
2021/07/05 01:42:38;;;;;;;15.67;14.37;;;19.90;3.40;;;;;;5038304;28;20411;-54
2021/07/05 01:45:05;;;;;;;15.27;14.07;;;19.90;3.30;;;;;;5032217;28;20451;-55
2021/07/05 01:47:31;;;;;;;15.43;14.20;;;19.90;1.70;;;;;;5045184;28;20261;-55
2021/07/05 01:49:56;;;;;;;14.67;13.47;;;19.90;1.00;;;;;;5052128;28;20388;-53
2021/07/05 01:52:22;;;;;;;15.40;14.10;;;19.90;1.00;;;;;;5052017;28;20175;-52
2021/07/05 01:54:47;;;;;;;15.23;14.03;;;19.90;1.00;;;;;;5051341;28;20184;-52
2021/07/05 01:57:25;;;;;;;16.07;14.77;;;20.00;1.00;;;;;;5052085;28;20168;-55
2021/07/05 02:00:01;;;;;;;15.67;14.27;;;20.00;1.00;;;;;;5051353;28;20641;-53
2021/07/05 02:02:27;;;;;;;15.13;13.85;;;20.00;1.00;;;;;;5050842;28;20421;-55
2021/07/05 02:04:53;;;;;;;14.20;13.10;;;20.20;1.00;;;;;;5030813;28;20316;-55
2021/07/05 02:07:19;;;;;;;13.40;12.40;;;20.10;1.00;;;;;;5047238;28;21150;-55
2021/07/05 02:09:45;;;;;;;14.33;13.03;;;20.10;1.00;;;;;;5031619;28;20428;-52
2021/07/05 02:12:12;;;;;;;16.48;15.00;;;20.00;1.00;;;;;;5050299;28;20441;-51
2021/07/05 02:14:40;;;;;;;14.07;12.87;;;20.00;1.00;;;;;;5051066;28;20192;-55
2021/07/05 02:17:08;;;;;;;14.20;13.00;;;20.00;1.00;;;;;;5050096;28;20532;-54
2021/07/05 02:19:34;;;;;;;14.70;13.30;;;20.00;1.00;;;;;;5044490;28;20435;-55
2021/07/05 02:21:59;;;;;;;14.03;12.83;;;19.90;1.00;;;;;;5047342;28;20456;-51
2021/07/05 02:24:25;;;;;;;13.97;12.77;;;19.90;1.00;;;;;;5054425;28;20460;-55
2021/07/05 02:26:51;;;;;;;12.90;11.70;;;19.80;1.00;;;;;;5059186;28;20697;-54
2021/07/05 02:29:17;;;;;;;13.70;12.50;;;19.80;1.00;;;;;;5038068;28;20197;-56
2021/07/05 02:31:42;;;;;;;14.70;13.50;;;19.80;1.00;;;;;;5039116;28;20953;-56
2021/07/05 02:34:08;;;;;;;13.67;12.57;;;19.70;1.20;;;;;;5049507;28;20440;-54
2021/07/05 02:36:34;;;;;;;14.00;12.80;;;19.70;1.00;;;;;;5047159;28;20198;-52
2021/07/05 02:38:59;;;;;;;13.17;12.07;;;19.70;1.00;;;;;;5051074;28;20190;-52
2021/07/05 02:41:25;;;;;;;13.20;12.00;;;19.60;1.00;;;;;;5039863;28;20192;-54
2021/07/05 02:43:50;;;;;;;14.60;13.40;;;19.60;1.00;;;;;;5034166;28;20216;-53
2021/07/05 02:46:16;;;;;;;13.60;12.50;;;19.60;1.00;;;;;;5050857;28;20184;-54
2021/07/05 02:48:43;;;;;;;13.00;11.90;;;19.70;1.00;;;;;;5050864;28;20254;-50
2021/07/05 02:51:09;;;;;;;12.30;11.10;;;19.70;1.00;;;;;;5041847;28;20205;-54
2021/07/05 02:53:36;;;;;;;11.47;10.57;;;19.80;1.00;;;;;;5048241;28;20554;-56
2021/07/05 02:56:03;;;;;;;11.07;10.20;;;19.90;1.00;;;;;;5038407;28;20462;-55
2021/07/05 02:58:29;;;;;;;10.70;9.90;;;20.00;1.00;;;;;;5046761;28;20439;-51
2021/07/05 03:00:58;;;;;;;11.23;10.23;;;20.00;1.00;;;;;;5042807;28;20479;-54
2021/07/05 03:03:26;;;;;;;11.47;10.57;;;19.90;1.00;;;;;;5030521;28;20416;-51
2021/07/05 03:05:52;;;;;;;11.00;10.10;;;19.90;1.00;;;;;;5035215;28;20463;-56
2021/07/05 03:08:20;;;;;;;11.10;10.20;;;19.80;1.00;;;;;;5049109;28;20430;-54
2021/07/05 03:10:46;;;;;;;11.32;10.43;;;19.80;1.00;;;;;;5050564;28;20422;-53
2021/07/05 03:13:14;;;;;;;11.00;10.13;;;19.80;1.00;;;;;;5049793;28;20188;-56
2021/07/05 03:15:41;;;;;;;11.00;10.20;;;19.90;1.00;;;;;;5030708;28;20486;-55
2021/07/05 03:18:07;;;;;;;10.73;9.63;;;19.90;1.00;;;;;;5040374;28;20445;-55
2021/07/05 03:20:36;;;;;;;9.90;9.10;;;20.00;1.00;;;;;;5049907;28;20416;-56
2021/07/05 03:23:03;;;;;;;9.17;8.47;;;20.10;1.00;;;;;;5050102;28;20452;-52
2021/07/05 03:25:30;;;;;;;10.17;9.37;;;20.00;1.00;;;;;;5049930;28;20862;-56
2021/07/05 03:27:57;;;;;;;11.33;10.43;;;20.00;1.00;;;;;;5045893;28;20439;-51
2021/07/05 03:30:24;;;;;;;9.90;9.20;;;20.00;1.00;;;;;;5049378;28;20504;-53
2021/07/05 03:32:50;;;;;;;9.63;8.93;;;20.00;1.00;;;;;;5054814;28;20443;-55
2021/07/05 03:35:17;;;;;;;10.67;9.77;;;20.00;1.00;;;;;;5032081;28;20896;-55
2021/07/05 03:37:44;;;;;;;9.20;8.50;;;20.10;1.00;;;;;;5037893;28;20442;-54
2021/07/05 03:40:13;;;;;;;9.53;8.73;;;20.20;1.00;;;;;;5033389;28;20460;-54
2021/07/05 03:42:38;;;;;;;9.87;9.13;;;20.20;1.00;;;;;;5030038;28;20464;-52
2021/07/05 03:45:07;;;;;;;9.87;8.97;;;20.20;1.00;;;;;;5029733;28;20991;-56
2021/07/05 03:47:33;;;;;;;10.10;9.30;;;20.30;1.00;;;;;;5049371;28;20631;-53
2021/07/05 03:49:59;;;;;;;9.37;8.67;;;20.40;1.00;;;;;;5046607;28;21105;-55
2021/07/05 03:52:25;;;;;;;10.07;9.27;;;20.40;1.00;;;;;;5046826;28;20489;-56
2021/07/05 03:54:50;;;;;;;10.00;9.30;;;20.50;1.00;;;;;;5047575;28;20785;-57
2021/07/05 03:57:22;;;;;;;9.87;8.97;;;20.50;1.00;;;;;;5040588;28;20243;-53
2021/07/05 03:59:51;;;;;;;9.60;8.90;;;20.70;1.00;;;;;;5038168;28;20280;-51
2021/07/05 04:02:17;;;;;;;10.00;9.20;;;20.70;1.00;;;;;;5039235;28;20436;-54
2021/07/05 04:04:44;;;;;;;9.43;8.73;;;20.70;1.00;;;;;;5046700;28;20502;-56
2021/07/05 04:07:10;;;;;;;9.43;8.73;;;20.70;1.00;;;;;;5037063;28;20441;-55
2021/07/05 04:09:36;;;;;;;8.73;8.13;;;20.70;1.00;;;;;;5042518;28;20428;-56
2021/07/05 04:12:03;;;;;;;8.50;7.80;;;20.80;1.00;;;;;;5043090;28;20515;-66
2021/07/05 04:14:29;;;;;;;8.67;8.07;;;20.70;1.00;;;;;;5046489;28;20178;-66
2021/07/05 04:16:55;;;;;;;8.73;8.10;;;20.70;1.00;;;;;;5042831;28;20770;-66
2021/07/05 04:19:21;;;;;;;8.30;7.60;;;20.70;1.00;;;;;;5039025;28;20627;-64
2021/07/05 04:21:46;;;;;;;8.77;8.00;;;20.60;1.00;;;;;;5041432;28;20900;-65
2021/07/05 04:24:12;;;;;;;8.23;7.63;;;20.50;1.00;;;;;;5048166;28;20597;-65
2021/07/05 04:26:38;;;;;;;7.90;7.30;;;20.50;1.00;;;;;;5046297;28;20270;-65
2021/07/05 04:29:04;;;;;;;8.23;7.63;;;20.50;1.00;;;;;;5031206;28;20274;-64
2021/07/05 04:31:29;;;;;;;9.37;8.67;;;20.40;1.00;;;;;;5045671;28;20206;-64
2021/07/05 04:33:55;;;;;;;8.50;7.90;;;20.40;1.00;;;;;;5049243;28;20203;-65
2021/07/05 04:36:20;;;;;;;7.57;7.00;;;20.50;1.00;;;;;;5034780;28;20196;-66
2021/07/05 04:38:46;;;;;;;7.73;7.10;;;20.50;1.00;;;;;;5047751;28;20191;-64
2021/07/05 04:41:11;;;;;;;7.83;7.03;;;20.50;1.00;;;;;;5035954;28;20287;-62
2021/07/05 04:43:37;;;;;;;8.23;7.53;;;20.40;1.00;;;;;;5043790;28;20193;-63
2021/07/05 04:46:04;;;;;;;7.67;7.07;;;20.20;1.00;;;;;;5028973;28;20531;-63
2021/07/05 04:48:31;;;;;;;6.70;6.30;;;20.30;1.00;;;;;;5031809;28;20269;-64
2021/07/05 04:50:57;;;;;;;6.67;6.17;;;20.40;1.00;;;;;;5042964;28;20479;-65
2021/07/05 04:53:23;;;;;;;6.67;6.17;;;20.40;1.00;;;;;;5032666;28;20934;-65
2021/07/05 04:55:49;;;;;;;7.23;6.70;;;20.30;1.00;;;;;;5048949;28;20184;-65
2021/07/05 04:58:15;;;;;;;7.33;6.70;;;20.30;1.00;;;;;;5048534;28;20419;-65
2021/07/05 05:00:40;;;;;;;7.53;6.93;;;20.30;1.00;;;;;;5044970;28;20502;-64
2021/07/05 05:03:06;;;;;;;7.10;6.60;;;20.20;1.00;;;;;;5048780;28;20292;-65
2021/07/05 05:05:33;;;;;;;7.30;6.80;;;20.10;1.00;;;;;;5040674;28;20209;-65
2021/07/05 05:07:59;;;;;;;6.50;6.10;;;20.10;1.00;;;;;;5043508;28;21438;-64
2021/07/05 05:10:26;;;;;;;7.20;6.60;;;20.20;1.00;;;;;;5047554;28;20413;-64
2021/07/05 05:12:53;;;;;;;6.45;5.97;;;20.20;1.00;;;;;;5034495;28;20497;-65
2021/07/05 05:15:19;;;;;;;6.70;6.27;;;20.20;1.00;;;;;;5036557;28;20247;-66
2021/07/05 05:17:46;;;;;;;7.10;6.60;;;20.20;1.00;;;;;;5034311;28;20434;-65
2021/07/05 05:20:12;;;;;;;7.00;6.50;;;20.30;1.00;;;;;;5048127;28;20492;-65
2021/07/05 05:22:38;;;;;;;6.43;5.97;;;20.30;1.00;;;;;;5031538;28;20748;-65
2021/07/05 05:25:07;;;;;;;7.10;6.50;;;20.20;1.00;;;;;;5028308;28;20469;-65
2021/07/05 05:27:32;;;;;;;6.60;6.10;;;20.20;1.00;;;;;;5033305;28;20503;-65
2021/07/05 05:29:58;;;;;;;6.60;6.20;;;20.20;7.60;;;;;;5042591;28;20526;-64
2021/07/05 05:32:24;;;;;;;7.10;6.60;;;20.10;5.00;;;;;;5028400;28;20674;-65
2021/07/05 05:34:49;;;;;;;6.63;6.13;;;20.00;18.70;;;;;;5044016;28;20190;-64
2021/07/05 05:37:15;;;;;;;6.80;6.30;;;19.90;28.20;;;;;;5047906;28;20178;-64
2021/07/05 05:39:40;;;;;;;6.90;6.30;;;19.70;38.90;;;;;;5045001;28;20840;-64
2021/07/05 05:42:06;;;;;;;8.90;8.10;;;19.60;49.00;;;;;;5047968;28;20304;-64
2021/07/05 05:44:32;;;;;;;8.60;8.00;;;19.50;55.70;;;;;;5048000;28;20197;-64
2021/07/05 05:46:57;;;;;;;7.53;6.93;;;19.40;53.60;;;;;;5048576;28;20580;-62
2021/07/05 05:49:23;;;;;;;8.03;7.23;;;19.40;63.80;;;;;;5048880;28;20170;-64
2021/07/05 05:51:49;;;;;;;7.30;6.70;;;19.40;83.60;;;;;;5054594;28;20491;-62
2021/07/05 05:54:15;;;;;;;6.30;5.80;;;19.30;77.60;;;;;;5054269;28;20689;-62
2021/07/05 05:56:42;;;;;;;7.90;7.23;;;19.20;78.30;;;;;;5048277;28;20213;-63
2021/07/05 05:59:09;;;;;;;7.90;7.17;;;19.20;90.50;;;;;;5049367;28;20482;-63
2021/07/05 06:01:37;;;;;;;7.40;6.70;;;19.20;96.00;;;;;;5046036;28;20568;-63
2021/07/05 06:04:03;;;;;;;7.17;6.53;;;19.20;79.50;;;;;;5050654;28;20480;-63
2021/07/05 06:06:29;;;;;;;7.47;6.87;;;19.30;92.40;;;;;;5042193;28;20437;-63
2021/07/05 06:08:55;;;;;;;6.97;6.47;;;19.30;99.30;;;;;;5031833;28;20425;-65
2021/07/05 06:11:21;;;;;;;7.23;6.70;;;19.30;96.40;;;;;;5036009;28;20815;-64
2021/07/05 06:13:47;;;;;;;7.20;6.50;;;19.30;99.90;;;;;;5033089;28;20186;-65
2021/07/05 06:16:13;;;;;;;7.13;6.63;;;19.30;99.90;;;;;;5048018;28;20430;-62
2021/07/05 06:18:38;;;;;;;6.97;6.40;;;19.40;99.90;;;;;;5047836;28;20442;-65
2021/07/05 06:21:04;;;;;;;7.40;6.80;;;19.30;99.90;;;;;;5051028;28;20538;-66
2021/07/05 06:23:30;;;;;;;6.80;6.30;;;19.30;99.90;;;;;;5050598;28;20906;-65
2021/07/05 06:25:58;;;;;;;7.40;6.80;;;19.40;99.90;;;;;;5039248;28;20190;-66
2021/07/05 06:28:26;;;;;;;7.68;7.07;;;19.30;94.90;;;;;;5049413;28;20182;-66
2021/07/05 06:30:52;;;;;;;6.70;6.20;;;19.40;99.90;;;;;;5038247;28;20179;-66
2021/07/05 06:33:18;;;;;;;6.67;6.17;;;19.40;92.20;;;;;;5039147;28;20412;-65
2021/07/05 06:35:46;;;;;;;5.93;5.43;;;19.40;92.20;;;;;;5044361;28;20662;-64
2021/07/05 06:38:13;;;;;;;6.00;5.57;;;19.40;92.80;;;;;;5032002;28;20182;-65
2021/07/05 06:40:39;;;;;;;6.57;6.07;;;19.30;86.40;;;;;;5041256;28;20959;-65
2021/07/05 06:43:06;;;;;;;6.10;5.60;;;19.30;83.60;;;;;;5039379;28;20766;-65
2021/07/05 06:45:32;;;;;;;6.30;5.80;;;19.20;86.10;;;;;;5037031;28;20511;-65
2021/07/05 06:47:58;;;;;;;6.20;5.70;;;19.10;85.10;;;;;;5048717;28;20502;-65
2021/07/05 06:50:24;;;;;;;5.77;5.27;;;19.00;96.90;;;;;;5048735;28;20174;-65
2021/07/05 06:52:50;;;;;;;6.77;6.27;;;18.90;99.90;;;;;;5045763;28;20427;-64
2021/07/05 06:55:16;;;;;;;6.67;6.17;;;18.80;99.90;;;;;;5050339;28;20532;-65
2021/07/05 06:57:41;;;;;;;6.43;5.93;;;18.90;99.90;;;;;;5043246;28;20514;-65
2021/07/05 07:00:09;;;;;;;7.20;6.50;;;18.80;99.90;;;;;;5047612;28;20312;-65
2021/07/05 07:02:37;;;;;;;7.27;6.73;;;18.80;99.90;;;;;;5043746;28;20265;-66
2021/07/05 07:05:04;;;;;;;6.93;6.33;;;18.90;99.90;;;;;;5042741;28;20457;-66
2021/07/05 07:07:30;;;;;;;7.20;6.60;;;18.90;99.90;;;;;;5032751;28;20427;-66
2021/07/05 07:09:55;;;;;;;7.20;6.57;;;18.90;99.90;;;;;;5042516;28;20892;-65
2021/07/05 07:12:21;;;;;;;7.23;6.63;;;18.90;99.90;;;;;;5038140;28;20178;-66
2021/07/05 07:14:46;;;;;;;7.27;6.57;;;19.00;99.90;;;;;;5043752;28;20188;-65
2021/07/05 07:17:21;;;;;;;7.10;6.50;;;19.10;99.90;;;;;;5039233;28;20181;-64
2021/07/05 07:19:46;;;;;;;6.80;6.20;;;19.20;99.90;;;;;;5036487;28;20185;-65
2021/07/05 07:22:12;;;;;;;6.67;6.07;;;19.30;99.90;;;;;;5046652;28;20190;-65
2021/07/05 07:24:37;;;;;;;6.03;5.57;;;19.30;99.90;;;;;;5042102;28;20202;-65
2021/07/05 07:27:03;;;;;;;5.77;5.33;;;19.30;99.90;;;;;;5036207;28;20206;-64
2021/07/05 07:29:29;;;;;;;5.40;5.00;;;19.40;85.00;;;;;;5034851;28;20228;-65
2021/07/05 07:31:54;;;;;;;6.00;5.50;;;19.40;86.60;;;;;;5041701;28;20440;-64
2021/07/05 07:34:21;;;;;;;5.97;5.47;;;19.40;96.50;;;;;;5033160;28;20175;-65
2021/07/05 07:36:46;;;;;;;5.60;5.10;;;19.40;74.00;;;;;;5046959;28;20181;-65
2021/07/05 07:39:16;;;;;;;5.40;5.00;;;19.50;76.30;;;;;;5049018;28;20421;-65
2021/07/05 07:41:41;;;;;;;5.93;5.40;;;19.50;78.30;;;;;;5047361;28;20610;-66
2021/07/05 07:44:07;;;;;;;5.50;5.10;;;19.50;65.20;;;;;;5048995;28;20523;-64
2021/07/05 07:46:33;;;;;;;5.20;4.80;;;19.50;59.10;;;;;;5045878;28;20179;-65
2021/07/05 07:48:58;;;;;;;5.07;4.67;;;19.50;62.40;;;;;;5045753;28;20554;-65
2021/07/05 07:51:24;;;;;;;5.77;5.33;;;19.60;63.70;;;;;;5046724;28;20428;-65
2021/07/05 07:53:50;;;;;;;5.77;4.30;;;19.60;48.00;;;;;;5047857;28;20185;-65
2021/07/05 07:56:16;;;;;;;5.60;5.20;;;19.70;53.20;;;;;;5048264;28;20219;-65
2021/07/05 07:58:42;;;;;;;5.23;4.77;;;19.70;61.60;;;;;;5046276;28;20516;-65
2021/07/05 08:01:08;;;;;;;5.30;4.80;;;19.90;57.90;;;;;;5034938;28;20460;-65
2021/07/05 08:03:34;;;;;;;5.30;4.80;;;20.10;51.60;;;;;;5038128;28;20197;-64
2021/07/05 08:06:01;;;;;;;5.23;4.87;;;20.40;26.30;;;;;;5030659;28;20445;-64
2021/07/05 08:08:26;;;;;;;5.00;4.60;;;20.70;34.90;;;;;;5033139;28;20538;-64
2021/07/05 08:10:52;;;;;;;4.50;4.20;;;21.00;19.40;;;;;;5037761;28;20428;-65
2021/07/05 08:13:18;;;;;;;4.03;3.83;;;21.40;14.30;;;;;;5037338;28;20201;-64
2021/07/05 08:15:44;;;;;;;4.20;3.90;;;21.60;1.00;;;;;;5052713;28;20316;-65
2021/07/05 08:18:10;;;;;;;4.03;3.73;;;22.00;1.00;;;;;;5046546;28;20420;-64
2021/07/05 08:20:35;;;;;;;4.67;4.37;;;22.40;1.00;;;;;;5041130;28;20930;-65
2021/07/05 08:23:02;;;;;;;4.30;4.00;;;22.70;1.00;;;;;;5048253;28;20276;-65
2021/07/05 08:25:27;;;;;;;4.13;3.83;;;23.00;1.00;;;;;;5040624;28;20201;-65
2021/07/05 08:27:54;;;;;;;4.70;4.40;;;23.20;1.00;;;;;;5040397;28;20679;-65
2021/07/05 08:30:21;;;;;;;4.37;4.07;;;23.20;1.00;;;;;;5037005;28;20182;-65
2021/07/05 08:32:52;;;;;;;4.55;4.25;;;23.20;1.00;;;;;;5047355;28;21320;-67
2021/07/05 08:35:18;;;;;;;5.20;4.90;;;23.40;1.00;;;;;;5037789;28;20243;-65
2021/07/05 08:37:44;;;;;;;4.40;4.20;;;23.30;1.00;;;;;;5041635;28;20444;-65
2021/07/05 08:40:10;;;;;;;4.80;4.50;;;23.40;1.00;;;;;;5039364;28;20519;-65
2021/07/05 08:42:37;;;;;;;4.97;4.60;;;23.70;1.00;;;;;;5037718;28;20237;-65
2021/07/05 08:45:06;;;;;;;4.70;4.40;;;23.80;99.90;;;;;;5042635;28;20557;-65
2021/07/05 08:47:36;;;;;;;4.97;4.67;;;23.80;1.00;;;;;;5041166;28;20181;-65
2021/07/05 08:50:04;;;;;;;5.00;4.70;;;24.00;99.90;;;;;;5051727;28;20415;-65
2021/07/05 08:52:34;;;;;;;4.93;4.53;;;24.10;1.00;;;;;;5060454;28;20408;-65
2021/07/05 08:55:00;;;;;;;4.57;4.33;;;24.30;99.90;;;;;;5047851;28;20475;-64
2021/07/05 08:57:27;;;;;;;4.67;4.47;;;24.30;1.00;;;;;;5050251;28;20423;-65
2021/07/05 08:59:54;;;;;;;4.53;4.33;;;24.50;99.90;;;;;;5049336;28;20419;-64
2021/07/05 09:02:20;;;;;;;4.80;4.50;;;24.60;52.10;;;;;;5045584;28;20421;-64
2021/07/05 09:04:49;;;;;;;4.37;4.17;;;24.50;1.00;;;;;;5052951;28;20466;-65
2021/07/05 09:07:15;;;;;;;5.13;4.83;;;24.50;99.90;;;;;;5045632;28;20419;-64
2021/07/05 09:10:04;;;;;;;4.80;4.50;;;24.80;99.90;;;;;;5048372;28;20862;-65
2021/07/05 09:12:29;;;;;;;4.60;4.30;;;24.90;1.00;;;;;;5043123;28;20177;-65
2021/07/05 09:15:10;;;;;;;4.60;4.40;;;24.60;99.90;;;;;;5042575;28;20830;-65
2021/07/05 09:17:38;;;;;;;5.20;4.90;;;24.50;1.00;;;;;;5033009;28;20243;-65
2021/07/05 09:20:19;;;;;;;4.33;4.10;;;24.50;99.90;;;;;;5047839;28;20416;-64
2021/07/05 09:23:07;;;;;;;4.13;3.93;;;24.30;99.90;;;;;;5037827;28;20417;-64
2021/07/05 09:25:37;;;;;;;4.40;4.20;;;24.50;99.90;;;;;;5035604;28;20460;-64
2021/07/05 09:28:04;;;;;;;4.17;3.97;;;24.50;1.00;;;;;;5041236;28;20417;-65
2021/07/05 09:30:41;;;;;;;4.30;4.10;;;24.50;1.00;;;;;;5045929;28;20415;-65
2021/07/05 09:33:24;;;;;;;4.70;4.50;;;24.80;1.00;;;;;;5042159;28;20907;-65
2021/07/05 09:35:55;;;;;;;4.80;4.50;;;25.10;99.90;;;;;;5046307;28;20440;-65
2021/07/05 09:38:33;;;;;;;5.00;4.70;;;25.60;99.90;;;;;;5039473;28;20428;-65
2021/07/05 09:41:14;;;;;;;5.20;5.00;;;26.40;99.90;;;;;;5045482;28;20465;-65
2021/07/05 09:43:41;;;;;;;5.00;4.80;;;26.50;99.90;;;;;;5048178;28;20193;-65
2021/07/05 09:46:11;;;;;;;4.60;4.40;;;27.00;1.00;;;;;;5043447;28;20463;-65
2021/07/05 09:48:44;;;;;;;4.83;4.63;;;27.60;1.00;;;;;;5046722;28;20412;-65
2021/07/05 09:51:13;;;;;;;5.67;5.30;;;27.80;99.90;;;;;;5052296;28;20420;-65
2021/07/05 09:53:44;;;;;;;5.80;5.50;;;28.60;1.00;;;;;;5051122;28;20965;-65
2021/07/05 09:56:24;;;;;;;5.00;4.80;;;29.30;1.00;;;;;;5052118;28;20679;-65
2021/07/05 09:58:55;;;;;;;4.67;4.47;;;29.50;1.00;;;;;;5049332;28;20428;-65
2021/07/05 10:01:41;;;;;;;5.20;5.00;;;30.20;1.00;;;;;;5048193;28;20580;-66
2021/07/05 10:04:10;;;;;;;5.20;4.90;;;31.00;99.90;;;;;;5044959;28;20455;-66
2021/07/05 10:06:41;;;;;;;5.20;5.00;;;31.50;99.90;;;;;;5055662;28;20946;-65
2021/07/05 10:09:08;;;;;;;5.70;5.40;;;31.80;99.90;;;;;;5066721;28;20404;-65
2021/07/05 10:11:34;;;;;;;5.87;5.57;;;32.70;99.90;;;;;;5058407;28;20415;-65
2021/07/05 10:14:22;;;;;;;5.37;5.17;;;33.30;99.90;;;;;;5062436;28;20408;-65
2021/07/05 10:16:50;;;;;;;6.27;5.97;;;33.00;99.90;;;;;;5063630;28;20878;-63
2021/07/05 10:19:16;;;;;;;5.30;5.10;;;32.90;99.90;;;;;;5047725;28;20430;-63
2021/07/05 10:21:43;;;;;;;5.30;5.10;;;33.20;99.90;;;;;;5047525;28;20447;-64
2021/07/05 10:24:09;;;;;;;5.27;5.07;;;33.60;99.90;;;;;;5046852;28;20459;-63
2021/07/05 10:26:36;;;;;;;5.28;4.97;;;33.60;99.90;;;;;;5031874;28;20434;-65
2021/07/05 10:29:04;;;;;;;5.63;5.33;;;33.10;99.90;;;;;;5043234;28;20174;-66
2021/07/05 10:31:30;;;;;;;4.97;4.77;;;33.50;99.90;;;;;;5045366;28;20992;-66
2021/07/05 10:34:00;;;;;;;5.53;5.33;;;33.60;99.90;;;;;;5043559;28;20420;-65
2021/07/05 10:36:29;;;;;;;5.67;5.37;;;33.30;99.90;;;;;;5042695;28;20409;-65
2021/07/05 10:38:58;;;;;;;5.70;5.40;;;33.30;99.90;;;;;;5036854;28;20527;-64
2021/07/05 10:41:36;;;;;;;5.77;5.57;;;33.50;99.90;;;;;;5044717;28;20434;-64
2021/07/05 10:44:06;;;;;;;6.03;5.73;;;32.80;99.90;;;;;;5043123;28;20475;-64
2021/07/05 10:46:34;;;;;;;5.97;5.67;;;32.10;99.90;;;;;;5037304;28;20432;-66
2021/07/05 10:49:00;;;;;;;5.47;5.28;;;32.50;99.90;;;;;;5050398;28;20838;-65
2021/07/05 10:51:26;;;;;;;6.10;5.70;;;32.40;99.90;;;;;;5049487;28;20182;-65
2021/07/05 10:53:54;;;;;;;5.50;5.30;;;32.00;99.90;;;;;;5041870;28;20170;-66
2021/07/05 10:56:31;;;;;;;5.30;5.10;;;31.80;99.90;;;;;;5043458;28;20914;-65
2021/07/05 10:59:17;;;;;;;5.65;5.35;;;31.40;99.90;;;;;;5038962;28;20425;-65
2021/07/05 11:01:45;;;;;;;6.40;6.10;;;30.80;99.90;;;;;;5032548;28;20217;-65
2021/07/05 11:04:19;;;;;;;5.40;5.20;;;30.70;99.90;;;;;;5040342;28;20988;-65
2021/07/05 11:06:46;;;;;;;6.40;6.00;;;30.50;99.90;;;;;;5038419;28;20515;-64
2021/07/05 11:09:23;;;;;;;6.10;5.80;;;30.30;99.90;;;;;;5041224;28;20424;-65
2021/07/05 11:11:58;;;;;;;5.97;5.67;;;30.10;99.90;;;;;;5041782;28;20428;-66
2021/07/05 11:14:38;;;;;;;6.60;6.30;;;29.70;99.90;;;;;;5044790;28;20627;-65
2021/07/05 11:17:17;;;;;;;6.17;5.87;;;29.30;99.90;;;;;;5042394;28;20437;-65
2021/07/05 11:19:50;;;;;;;5.77;5.23;;;29.00;99.90;;;;;;5043266;28;20429;-65
2021/07/05 11:22:29;;;;;;;5.90;5.60;;;28.90;1.00;;;;;;5055689;28;20467;-66
2021/07/05 11:25:16;;;;;;;5.37;5.07;;;28.80;1.00;;;;;;5036176;28;20457;-65
2021/07/05 11:27:59;;;;;;;5.60;5.20;;;28.80;1.00;;;;;;5033664;28;20959;-67
2021/07/05 11:30:40;;;;;;;5.93;5.60;;;28.60;1.00;;;;;;5047860;28;20199;-65
2021/07/05 11:33:11;;;;;;;6.23;5.60;;;28.30;1.00;;;;;;5043392;28;20423;-65
2021/07/05 11:35:58;;;;;;;6.00;5.60;;;28.70;1.00;;;;;;5061208;28;20434;-65
2021/07/05 11:38:27;;;;;;;5.77;5.47;;;28.60;1.00;;;;;;5047367;28;20416;-64
2021/07/05 11:40:55;;;;;;;6.03;5.73;;;28.60;1.00;;;;;;5043340;28;20453;-65
2021/07/05 11:44:31;;;;;;;5.80;5.50;;;28.60;1.00;;;;;;5061309;28;20411;-65
2021/07/05 11:46:38;;;;;;;6.47;6.17;;;28.60;1.00;;;;;;5033138;28;20435;-66
2021/07/05 11:49:07;;;;;;;6.03;5.73;;;28.30;1.00;;;;;;5046241;28;20868;-66
2021/07/05 11:51:36;;;;;;;6.30;5.93;;;28.30;1.00;;;;;;5043754;28;20179;-64
2021/07/05 11:54:03;;;;;;;6.50;6.10;;;28.20;1.00;;;;;;5042627;28;20508;-66
2021/07/05 11:56:44;;;;;;;6.57;6.07;;;27.80;1.00;;;;;;5030974;28;22382;-65
2021/07/05 11:59:27;;;;;;;6.30;6.00;;;28.00;1.00;;;;;;5047407;28;20420;-65
2021/07/05 12:01:57;;;;;;;6.37;6.07;;;28.00;1.00;;;;;;5048320;28;20569;-65
2021/07/05 12:04:31;;;;;;;6.33;5.97;;;28.00;1.00;;;;;;5045624;28;20472;-65
2021/07/05 12:06:57;;;;;;;6.47;6.17;;;27.60;99.90;;;;;;5048478;28;20420;-64
2021/07/05 12:09:29;;;;;;;7.00;6.60;;;27.50;99.90;;;;;;5040568;28;20965;-64
2021/07/05 12:11:55;;;;;;;7.00;6.50;;;27.70;99.90;;;;;;5028465;28;20413;-64
2021/07/05 12:14:25;;;;;;;6.68;6.38;;;27.60;99.90;;;;;;5038170;28;20511;-65
2021/07/05 12:16:57;;;;;;;7.00;6.60;;;27.70;99.90;;;;;;5044483;28;20260;-65
2021/07/05 12:19:23;;;;;;;6.15;5.85;;;27.30;99.90;;;;;;5034432;28;20818;-64
2021/07/05 12:21:51;;;;;;;5.07;4.77;;;27.10;84.20;;;;;;5043774;28;20191;-65
2021/07/05 12:24:18;;;;;;;4.67;4.43;;;27.20;1.00;;;;;;5028932;28;20468;-65
2021/07/05 12:26:50;;;;;;;4.90;4.60;;;27.20;99.90;;;;;;5034564;28;21025;-65
2021/07/05 12:29:23;;;;;;;4.87;4.67;;;26.90;99.90;;;;;;5047082;28;20855;-65
2021/07/05 12:32:07;;;;;;;4.80;4.60;;;26.40;1.00;;;;;;5035828;28;20420;-65
2021/07/05 12:34:44;;;;;;;4.87;4.57;;;25.80;1.00;;;;;;5035207;28;20189;-65
2021/07/05 12:37:24;;;;;;;5.00;4.80;;;25.70;1.00;;;;;;5031802;28;21202;-64
2021/07/05 12:39:56;;;;;;;4.07;3.87;;;25.60;1.00;;;;;;5028936;28;20424;-65
2021/07/05 12:42:31;;;;;;;4.17;4.00;;;25.70;99.90;;;;;;5041654;28;20485;-63
2021/07/05 12:44:58;;;;;;;4.00;3.80;;;26.00;99.90;;;;;;5040422;28;20463;-64
2021/07/05 12:47:25;;;;;;;3.95;3.75;;;26.90;99.90;;;;;;5041907;28;20442;-65
2021/07/05 12:49:52;;;;;;;4.00;3.90;;;27.50;99.90;;;;;;5041938;28;20179;-64
2021/07/05 12:52:18;;;;;;;4.38;4.18;;;28.20;99.90;;;;;;5047439;28;20435;-64